UAL463 KORD-KDCA
Flight info
| Callsign | UAL463 |
|---|---|
| Flight time | 1h 13m |
| Altitude | 39000 |
| Route | MOBLE ADIME OTENS ANEWA JERRI NUSMM BUCKO FRDMM6 |
| Aircraft | B752/M-SDE3FGHIM3RWXY/LB1 |
Departure
| Time | 2026-05-06 21:52 |
|---|---|
| Airport | Chicago O'Hare International Airport (KORD) |
Arrival
| Time | 2026-05-06 23:06 |
|---|---|
| Airport | Ronald Reagan Washington National Airport (KDCA) |
| Time | Latitude | Longitude | Altitude | Speed | Heading |
|---|---|---|---|---|---|
| 2026-05-06 20:33 | 41.97822 | -87.90982 | 669 ft | 0 kts | 279° |
| 2026-05-06 21:10 | 41.97820 | -87.90968 | 669 ft | 2 kts | 279° |
| 2026-05-06 21:11 | 41.97819 | -87.90955 | 669 ft | 2 kts | 275° |
| 2026-05-06 21:11 | 41.97821 | -87.90936 | 669 ft | 2 kts | 247° |
| 2026-05-06 21:11 | 41.97829 | -87.90918 | 669 ft | 2 kts | 226° |
| 2026-05-06 21:11 | 41.97841 | -87.90906 | 669 ft | 2 kts | 204° |
| 2026-05-06 21:12 | 41.97849 | -87.90902 | 668 ft | 0 kts | 190° |
| 2026-05-06 21:12 | 41.97855 | -87.90900 | 668 ft | 0 kts | 189° |
| 2026-05-06 21:22 | 41.97822 | -87.90982 | 669 ft | 0 kts | 279° |
| 2026-05-06 21:38 | 41.97821 | -87.90971 | 669 ft | 2 kts | 279° |
| 2026-05-06 21:38 | 41.97818 | -87.90951 | 669 ft | 2 kts | 295° |
| 2026-05-06 21:38 | 41.97809 | -87.90934 | 669 ft | 2 kts | 316° |
| 2026-05-06 21:39 | 41.97797 | -87.90923 | 669 ft | 2 kts | 339° |
| 2026-05-06 21:39 | 41.97782 | -87.90919 | 669 ft | 2 kts | 360° |
| 2026-05-06 21:39 | 41.97774 | -87.90919 | 669 ft | 1 kts | 13° |
| 2026-05-06 21:39 | 41.97770 | -87.90920 | 669 ft | 0 kts | 9° |
| 2026-05-06 21:41 | 41.97844 | -87.90904 | 669 ft | 16 kts | 10° |
| 2026-05-06 21:41 | 41.97945 | -87.90886 | 668 ft | 13 kts | 7° |
| 2026-05-06 21:42 | 41.98034 | -87.90862 | 667 ft | 13 kts | 11° |
| 2026-05-06 21:42 | 41.98128 | -87.90855 | 666 ft | 13 kts | 356° |
| 2026-05-06 21:42 | 41.98203 | -87.90870 | 666 ft | 2 kts | 326° |
| 2026-05-06 21:42 | 41.98215 | -87.90912 | 666 ft | 8 kts | 276° |
| 2026-05-06 21:43 | 41.98181 | -87.91039 | 667 ft | 19 kts | 234° |
| 2026-05-06 21:43 | 41.98075 | -87.91167 | 668 ft | 20 kts | 211° |
| 2026-05-06 21:43 | 41.97950 | -87.91258 | 669 ft | 20 kts | 206° |
| 2026-05-06 21:43 | 41.97811 | -87.91299 | 670 ft | 21 kts | 179° |
| 2026-05-06 21:44 | 41.97663 | -87.91234 | 671 ft | 23 kts | 148° |
| 2026-05-06 21:44 | 41.97554 | -87.91161 | 670 ft | 14 kts | 198° |
| 2026-05-06 21:44 | 41.97480 | -87.91245 | 671 ft | 13 kts | 229° |
| 2026-05-06 21:44 | 41.97401 | -87.91267 | 671 ft | 9 kts | 196° |
| 2026-05-06 21:45 | 41.97353 | -87.91367 | 671 ft | 15 kts | 257° |
| 2026-05-06 21:45 | 41.97303 | -87.91481 | 672 ft | 14 kts | 201° |
| 2026-05-06 21:45 | 41.97210 | -87.91489 | 672 ft | 12 kts | 171° |
| 2026-05-06 21:45 | 41.97156 | -87.91361 | 672 ft | 24 kts | 90° |
| 2026-05-06 21:46 | 41.97158 | -87.91110 | 671 ft | 27 kts | 89° |
| 2026-05-06 21:46 | 41.97161 | -87.90853 | 670 ft | 24 kts | 90° |
| 2026-05-06 21:46 | 41.97150 | -87.90620 | 669 ft | 25 kts | 95° |
| 2026-05-06 21:46 | 41.97138 | -87.90381 | 667 ft | 25 kts | 92° |
| 2026-05-06 21:47 | 41.97129 | -87.90176 | 665 ft | 18 kts | 113° |
| 2026-05-06 21:47 | 41.97055 | -87.90093 | 663 ft | 13 kts | 120° |
| 2026-05-06 21:47 | 41.97040 | -87.89969 | 662 ft | 14 kts | 86° |
| 2026-05-06 21:47 | 41.97042 | -87.89826 | 660 ft | 16 kts | 91° |
| 2026-05-06 21:48 | 41.97040 | -87.89631 | 658 ft | 25 kts | 89° |
| 2026-05-06 21:48 | 41.97042 | -87.89390 | 657 ft | 23 kts | 90° |
| 2026-05-06 21:48 | 41.97043 | -87.89166 | 656 ft | 24 kts | 90° |
| 2026-05-06 21:48 | 41.97046 | -87.88937 | 657 ft | 24 kts | 92° |
| 2026-05-06 21:49 | 41.97043 | -87.88733 | 657 ft | 19 kts | 90° |
| 2026-05-06 21:49 | 41.97044 | -87.88548 | 657 ft | 19 kts | 89° |
| 2026-05-06 21:49 | 41.97045 | -87.88359 | 657 ft | 20 kts | 89° |
| 2026-05-06 21:49 | 41.97045 | -87.88191 | 657 ft | 13 kts | 90° |
| 2026-05-06 21:50 | 41.97028 | -87.88066 | 656 ft | 13 kts | 128° |
| 2026-05-06 21:50 | 41.96947 | -87.88038 | 656 ft | 10 kts | 209° |
| 2026-05-06 21:50 | 41.96937 | -87.88048 | 657 ft | 0 kts | 220° |
| 2026-05-06 21:51 | 41.96801 | -87.88208 | 657 ft | 66 kts | 224° |
| 2026-05-06 21:52 | 41.96368 | -87.88725 | 658 ft | 99 kts | 223° |
| 2026-05-06 21:52 | 41.95715 | -87.89490 | 713 ft | 158 kts | 223° |
| 2026-05-06 21:52 | 41.94745 | -87.90549 | 1236 ft | 187 kts | 222° |
| 2026-05-06 21:52 | 41.93667 | -87.91523 | 1984 ft | 198 kts | 209° |
| 2026-05-06 21:53 | 41.92210 | -87.91924 | 2675 ft | 238 kts | 183° |
| 2026-05-06 21:53 | 41.90381 | -87.91595 | 3442 ft | 284 kts | 171° |
| 2026-05-06 21:53 | 41.88508 | -87.91064 | 4384 ft | 271 kts | 171° |
| 2026-05-06 21:53 | 41.86682 | -87.90543 | 5132 ft | 277 kts | 171° |
| 2026-05-06 21:54 | 41.84758 | -87.90006 | 5943 ft | 288 kts | 171° |
| 2026-05-06 21:54 | 41.82789 | -87.89455 | 6809 ft | 299 kts | 169° |
| 2026-05-06 21:54 | 41.80967 | -87.88254 | 8546 ft | 300 kts | 141° |
| 2026-05-06 21:54 | 41.79446 | -87.86446 | 10226 ft | 298 kts | 151° |
| 2026-05-06 21:55 | 41.77556 | -87.85369 | 11355 ft | 309 kts | 172° |
| 2026-05-06 21:55 | 41.75404 | -87.84711 | 12433 ft | 330 kts | 173° |
| 2026-05-06 21:55 | 41.73185 | -87.83687 | 13492 ft | 361 kts | 160° |
| 2026-05-06 21:55 | 41.71075 | -87.81687 | 14839 ft | 384 kts | 142° |
| 2026-05-06 21:56 | 41.69391 | -87.78889 | 16270 ft | 402 kts | 127° |
| 2026-05-06 21:56 | 41.68233 | -87.75441 | 17643 ft | 419 kts | 111° |
| 2026-05-06 21:56 | 41.67701 | -87.71587 | 18779 ft | 437 kts | 96° |
| 2026-05-06 21:56 | 41.67861 | -87.67487 | 19856 ft | 454 kts | 81° |
| 2026-05-06 21:57 | 41.68716 | -87.63392 | 20911 ft | 465 kts | 68° |
| 2026-05-06 21:57 | 41.70138 | -87.59478 | 21945 ft | 473 kts | 54° |
| 2026-05-06 21:57 | 41.72047 | -87.55912 | 23043 ft | 477 kts | 51° |
| 2026-05-06 21:57 | 41.73802 | -87.52080 | 23942 ft | 491 kts | 57° |
| 2026-05-06 21:58 | 41.75528 | -87.48138 | 24705 ft | 503 kts | 56° |
| 2026-05-06 21:58 | 41.77352 | -87.44079 | 25634 ft | 511 kts | 54° |
| 2026-05-06 21:58 | 41.79214 | -87.39987 | 26353 ft | 521 kts | 54° |
| 2026-05-06 21:58 | 41.81086 | -87.35883 | 27195 ft | 528 kts | 54° |
| 2026-05-06 21:59 | 41.83032 | -87.31628 | 27899 ft | 537 kts | 54° |
| 2026-05-06 21:59 | 41.85000 | -87.27321 | 28561 ft | 545 kts | 54° |
| 2026-05-06 21:59 | 41.86980 | -87.22990 | 29320 ft | 550 kts | 54° |
| 2026-05-06 21:59 | 41.88990 | -87.18591 | 29849 ft | 560 kts | 54° |
| 2026-05-06 22:00 | 41.90984 | -87.14103 | 30443 ft | 567 kts | 58° |
| 2026-05-06 22:00 | 41.92674 | -87.09314 | 31091 ft | 574 kts | 67° |
| 2026-05-06 22:00 | 41.93923 | -87.04180 | 31503 ft | 583 kts | 76° |
| 2026-05-06 22:00 | 41.94650 | -86.98836 | 32050 ft | 585 kts | 85° |
| 2026-05-06 22:01 | 41.94871 | -86.93454 | 32591 ft | 583 kts | 93° |
| 2026-05-06 22:01 | 41.94892 | -86.88024 | 33102 ft | 584 kts | 92° |
| 2026-05-06 22:01 | 41.94949 | -86.82564 | 33514 ft | 586 kts | 91° |
| 2026-05-06 22:01 | 41.95016 | -86.77119 | 34206 ft | 580 kts | 92° |
| 2026-05-06 22:02 | 41.95082 | -86.71804 | 34793 ft | 578 kts | 92° |
| 2026-05-06 22:02 | 41.95147 | -86.66399 | 35257 ft | 576 kts | 92° |
| 2026-05-06 22:02 | 41.95215 | -86.61089 | 35778 ft | 572 kts | 91° |
| 2026-05-06 22:02 | 41.95277 | -86.55792 | 36295 ft | 568 kts | 91° |
| 2026-05-06 22:03 | 41.95339 | -86.50499 | 36461 ft | 572 kts | 91° |
| 2026-05-06 22:03 | 41.95399 | -86.45177 | 36908 ft | 567 kts | 91° |
| 2026-05-06 22:03 | 41.95456 | -86.39891 | 37153 ft | 568 kts | 91° |
| 2026-05-06 22:03 | 41.95511 | -86.34647 | 37467 ft | 565 kts | 92° |
| 2026-05-06 22:04 | 41.95564 | -86.29272 | 37681 ft | 565 kts | 92° |
| 2026-05-06 22:04 | 41.95495 | -86.24065 | 37867 ft | 562 kts | 99° |
| 2026-05-06 22:04 | 41.94939 | -86.18913 | 38096 ft | 553 kts | 108° |
| 2026-05-06 22:04 | 41.94047 | -86.13903 | 38198 ft | 553 kts | 110° |
| 2026-05-06 22:05 | 41.93124 | -86.08963 | 38442 ft | 551 kts | 110° |
| 2026-05-06 22:05 | 41.92162 | -86.03931 | 38517 ft | 554 kts | 111° |
| 2026-05-06 22:05 | 41.91208 | -85.99021 | 38685 ft | 552 kts | 110° |
| 2026-05-06 22:05 | 41.90232 | -85.94048 | 38863 ft | 551 kts | 111° |
| 2026-05-06 22:06 | 41.89260 | -85.89103 | 38983 ft | 542 kts | 111° |
| 2026-05-06 22:06 | 41.88293 | -85.84236 | 38986 ft | 542 kts | 111° |
| 2026-05-06 22:06 | 41.86358 | -85.74540 | 38991 ft | 542 kts | 111° |
| 2026-05-06 22:07 | 41.84405 | -85.64799 | 38983 ft | 543 kts | 111° |
| 2026-05-06 22:07 | 41.82431 | -85.55005 | 38985 ft | 544 kts | 111° |
| 2026-05-06 22:08 | 41.80462 | -85.45278 | 38998 ft | 545 kts | 110° |
| 2026-05-06 22:08 | 41.78468 | -85.35474 | 38986 ft | 547 kts | 110° |
| 2026-05-06 22:09 | 41.76464 | -85.25666 | 38988 ft | 547 kts | 111° |
| 2026-05-06 22:09 | 41.74451 | -85.15866 | 38949 ft | 548 kts | 112° |
| 2026-05-06 22:10 | 41.72432 | -85.06091 | 38982 ft | 547 kts | 112° |
| 2026-05-06 22:10 | 41.70394 | -84.96259 | 38983 ft | 548 kts | 112° |
| 2026-05-06 22:11 | 41.68356 | -84.86477 | 38985 ft | 549 kts | 112° |
| 2026-05-06 22:11 | 41.66656 | -84.76547 | 39014 ft | 558 kts | 99° |
| 2026-05-06 22:12 | 41.66155 | -84.66135 | 38970 ft | 562 kts | 96° |
| 2026-05-06 22:12 | 41.65703 | -84.55794 | 38944 ft | 562 kts | 96° |
| 2026-05-06 22:13 | 41.65247 | -84.45421 | 39107 ft | 560 kts | 96° |
| 2026-05-06 22:13 | 41.65020 | -84.40310 | 38960 ft | 541 kts | 96° |
| 2026-05-06 22:13 | 41.64796 | -84.35342 | 38968 ft | 534 kts | 96° |
| 2026-05-06 22:14 | 41.64340 | -84.25409 | 38956 ft | 536 kts | 97° |
| 2026-05-06 22:14 | 41.63879 | -84.15489 | 38979 ft | 538 kts | 97° |
| 2026-05-06 22:15 | 41.63409 | -84.05571 | 38956 ft | 540 kts | 97° |
| 2026-05-06 22:15 | 41.62927 | -83.95570 | 38954 ft | 542 kts | 97° |
| 2026-05-06 22:16 | 41.62432 | -83.85494 | 38962 ft | 544 kts | 97° |
| 2026-05-06 22:16 | 41.61927 | -83.75422 | 38945 ft | 547 kts | 97° |
| 2026-05-06 22:17 | 41.61409 | -83.65317 | 38946 ft | 549 kts | 98° |
| 2026-05-06 22:17 | 41.60057 | -83.56080 | 39001 ft | 541 kts | 112° |
| 2026-05-06 22:18 | 41.59280 | -83.52437 | 38964 ft | 542 kts | 112° |
| 2026-05-06 22:18 | 41.57169 | -83.42757 | 38976 ft | 543 kts | 112° |
| 2026-05-06 22:19 | 41.55008 | -83.33076 | 38968 ft | 547 kts | 113° |
| 2026-05-06 22:19 | 41.52822 | -83.23369 | 38935 ft | 548 kts | 114° |
| 2026-05-06 22:20 | 41.50633 | -83.13704 | 38953 ft | 549 kts | 113° |
| 2026-05-06 22:20 | 41.48421 | -83.03978 | 38955 ft | 550 kts | 114° |
| 2026-05-06 22:21 | 41.46192 | -82.94228 | 38942 ft | 553 kts | 114° |
| 2026-05-06 22:21 | 41.43942 | -82.84420 | 38973 ft | 553 kts | 114° |
| 2026-05-06 22:22 | 41.41695 | -82.74676 | 38967 ft | 555 kts | 114° |
| 2026-05-06 22:22 | 41.39180 | -82.64959 | 38955 ft | 547 kts | 124° |
| 2026-05-06 22:23 | 41.37407 | -82.60617 | 38994 ft | 535 kts | 134° |
| 2026-05-06 22:23 | 41.35227 | -82.56697 | 39002 ft | 521 kts | 142° |
| 2026-05-06 22:23 | 41.30371 | -82.49653 | 38992 ft | 518 kts | 146° |
| 2026-05-06 22:24 | 41.25380 | -82.42740 | 38959 ft | 519 kts | 147° |
| 2026-05-06 22:24 | 41.20359 | -82.35900 | 38978 ft | 522 kts | 147° |
| 2026-05-06 22:25 | 41.15263 | -82.29001 | 38952 ft | 524 kts | 148° |
| 2026-05-06 22:25 | 41.10148 | -82.22101 | 38968 ft | 524 kts | 148° |
| 2026-05-06 22:26 | 41.05039 | -82.15228 | 39009 ft | 525 kts | 148° |
| 2026-05-06 22:26 | 40.99926 | -82.08369 | 38982 ft | 527 kts | 148° |
| 2026-05-06 22:27 | 40.94785 | -82.01485 | 38973 ft | 528 kts | 148° |
| 2026-05-06 22:27 | 40.89607 | -81.94571 | 38974 ft | 528 kts | 148° |
| 2026-05-06 22:28 | 40.84431 | -81.87678 | 38969 ft | 530 kts | 148° |
| 2026-05-06 22:28 | 40.79250 | -81.80789 | 38988 ft | 531 kts | 148° |
| 2026-05-06 22:29 | 40.74048 | -81.73895 | 38969 ft | 532 kts | 148° |
| 2026-05-06 22:29 | 40.68828 | -81.66988 | 38961 ft | 535 kts | 148° |
| 2026-05-06 22:30 | 40.63576 | -81.60055 | 38962 ft | 536 kts | 148° |
| 2026-05-06 22:30 | 40.58342 | -81.53162 | 38978 ft | 533 kts | 148° |
| 2026-05-06 22:31 | 40.53085 | -81.46259 | 38978 ft | 535 kts | 149° |
| 2026-05-06 22:31 | 40.47837 | -81.39381 | 38985 ft | 535 kts | 148° |
| 2026-05-06 22:32 | 40.42565 | -81.32488 | 38933 ft | 535 kts | 149° |
| 2026-05-06 22:32 | 40.37317 | -81.25642 | 38937 ft | 535 kts | 150° |
| 2026-05-06 22:33 | 40.32031 | -81.18763 | 38945 ft | 534 kts | 150° |
| 2026-05-06 22:33 | 40.26812 | -81.11986 | 38967 ft | 533 kts | 150° |
| 2026-05-06 22:34 | 40.21539 | -81.05159 | 38941 ft | 534 kts | 150° |
| 2026-05-06 22:34 | 40.16233 | -80.98302 | 38950 ft | 535 kts | 149° |
| 2026-05-06 22:35 | 40.10989 | -80.91539 | 38952 ft | 534 kts | 149° |
| 2026-05-06 22:35 | 40.05707 | -80.84745 | 38948 ft | 534 kts | 149° |
| 2026-05-06 22:36 | 40.00460 | -80.77797 | 38951 ft | 538 kts | 147° |
| 2026-05-06 22:36 | 39.95314 | -80.70789 | 38956 ft | 539 kts | 147° |
| 2026-05-06 22:37 | 39.90127 | -80.63745 | 38961 ft | 540 kts | 147° |
| 2026-05-06 22:37 | 39.84906 | -80.56675 | 38961 ft | 540 kts | 147° |
| 2026-05-06 22:38 | 39.79726 | -80.49682 | 38959 ft | 541 kts | 146° |
| 2026-05-06 22:38 | 39.74511 | -80.42654 | 38954 ft | 540 kts | 147° |
| 2026-05-06 22:39 | 39.69286 | -80.35631 | 38974 ft | 542 kts | 147° |
| 2026-05-06 22:39 | 39.64069 | -80.28633 | 38946 ft | 540 kts | 147° |
| 2026-05-06 22:40 | 39.58872 | -80.21672 | 38828 ft | 530 kts | 147° |
| 2026-05-06 22:40 | 39.56324 | -80.18263 | 38054 ft | 528 kts | 147° |
| 2026-05-06 22:40 | 39.53762 | -80.14852 | 37252 ft | 525 kts | 147° |
| 2026-05-06 22:41 | 39.48824 | -80.08263 | 35831 ft | 505 kts | 147° |
| 2026-05-06 22:41 | 39.46355 | -80.04988 | 35188 ft | 507 kts | 147° |
| 2026-05-06 22:41 | 39.43927 | -80.01763 | 34563 ft | 504 kts | 147° |
| 2026-05-06 22:42 | 39.41495 | -79.98532 | 33941 ft | 500 kts | 148° |
| 2026-05-06 22:42 | 39.39032 | -79.95278 | 33359 ft | 504 kts | 147° |
| 2026-05-06 22:42 | 39.36599 | -79.92062 | 32773 ft | 508 kts | 147° |
| 2026-05-06 22:42 | 39.34176 | -79.88742 | 32170 ft | 515 kts | 141° |
| 2026-05-06 22:43 | 39.32025 | -79.85023 | 31575 ft | 523 kts | 131° |
| 2026-05-06 22:43 | 39.30257 | -79.80867 | 30976 ft | 532 kts | 121° |
| 2026-05-06 22:43 | 39.28968 | -79.76419 | 30485 ft | 539 kts | 112° |
| 2026-05-06 22:43 | 39.28159 | -79.71670 | 30003 ft | 544 kts | 100° |
| 2026-05-06 22:44 | 39.27846 | -79.66833 | 29532 ft | 545 kts | 96° |
| 2026-05-06 22:44 | 39.27615 | -79.61998 | 29059 ft | 538 kts | 97° |
| 2026-05-06 22:44 | 39.27305 | -79.57253 | 28649 ft | 532 kts | 98° |
| 2026-05-06 22:44 | 39.26960 | -79.52497 | 28093 ft | 534 kts | 99° |
| 2026-05-06 22:45 | 39.26598 | -79.47774 | 27393 ft | 529 kts | 99° |
| 2026-05-06 22:45 | 39.26226 | -79.43096 | 26697 ft | 522 kts | 98° |
| 2026-05-06 22:45 | 39.25851 | -79.38438 | 26012 ft | 518 kts | 99° |
| 2026-05-06 22:45 | 39.25480 | -79.33888 | 25339 ft | 510 kts | 99° |
| 2026-05-06 22:46 | 39.25114 | -79.29433 | 24686 ft | 505 kts | 99° |
| 2026-05-06 22:46 | 39.24746 | -79.25002 | 24081 ft | 502 kts | 99° |
| 2026-05-06 22:46 | 39.24374 | -79.20566 | 23662 ft | 505 kts | 100° |
| 2026-05-06 22:46 | 39.23989 | -79.16040 | 23351 ft | 505 kts | 100° |
| 2026-05-06 22:47 | 39.23610 | -79.11613 | 23027 ft | 499 kts | 99° |
| 2026-05-06 22:47 | 39.23237 | -79.07188 | 22681 ft | 493 kts | 100° |
| 2026-05-06 22:47 | 39.22859 | -79.02811 | 22364 ft | 487 kts | 101° |
| 2026-05-06 22:47 | 39.22485 | -78.98506 | 22050 ft | 485 kts | 99° |
| 2026-05-06 22:48 | 39.22099 | -78.94204 | 21726 ft | 481 kts | 100° |
| 2026-05-06 22:48 | 39.21685 | -78.89951 | 21364 ft | 479 kts | 100° |
| 2026-05-06 22:48 | 39.21278 | -78.85726 | 21009 ft | 474 kts | 99° |
| 2026-05-06 22:48 | 39.20876 | -78.81576 | 20646 ft | 468 kts | 99° |
| 2026-05-06 22:49 | 39.20475 | -78.77433 | 20280 ft | 463 kts | 99° |
| 2026-05-06 22:49 | 39.20075 | -78.73358 | 19925 ft | 457 kts | 99° |
| 2026-05-06 22:49 | 39.19678 | -78.69315 | 19463 ft | 458 kts | 99° |
| 2026-05-06 22:49 | 39.19280 | -78.65272 | 18931 ft | 457 kts | 98° |
| 2026-05-06 22:50 | 39.18880 | -78.61199 | 18321 ft | 455 kts | 99° |
| 2026-05-06 22:50 | 39.18485 | -78.57226 | 17971 ft | 446 kts | 98° |
| 2026-05-06 22:50 | 39.18103 | -78.53368 | 17382 ft | 429 kts | 98° |
| 2026-05-06 22:50 | 39.17729 | -78.49602 | 16750 ft | 420 kts | 99° |
| 2026-05-06 22:51 | 39.17361 | -78.45919 | 16195 ft | 418 kts | 98° |
| 2026-05-06 22:51 | 39.16987 | -78.42205 | 15651 ft | 416 kts | 98° |
| 2026-05-06 22:51 | 39.16623 | -78.38596 | 15308 ft | 407 kts | 99° |
| 2026-05-06 22:51 | 39.15994 | -78.35046 | 14936 ft | 403 kts | 111° |
| 2026-05-06 22:52 | 39.15159 | -78.31638 | 14895 ft | 396 kts | 111° |
| 2026-05-06 22:52 | 39.14325 | -78.28220 | 14908 ft | 407 kts | 111° |
| 2026-05-06 22:52 | 39.13464 | -78.24720 | 14907 ft | 403 kts | 111° |
| 2026-05-06 22:52 | 39.12619 | -78.21304 | 14908 ft | 401 kts | 111° |
| 2026-05-06 22:53 | 39.11776 | -78.17911 | 14916 ft | 402 kts | 111° |
| 2026-05-06 22:53 | 39.10927 | -78.14503 | 14910 ft | 401 kts | 111° |
| 2026-05-06 22:53 | 39.10065 | -78.11056 | 14906 ft | 403 kts | 111° |
| 2026-05-06 22:53 | 39.09189 | -78.07616 | 14379 ft | 410 kts | 111° |
| 2026-05-06 22:54 | 39.08324 | -78.04224 | 13766 ft | 390 kts | 111° |
| 2026-05-06 22:54 | 39.07497 | -78.00983 | 13323 ft | 382 kts | 111° |
| 2026-05-06 22:54 | 39.06658 | -77.97701 | 12926 ft | 382 kts | 112° |
| 2026-05-06 22:54 | 39.05834 | -77.94488 | 12589 ft | 381 kts | 111° |
| 2026-05-06 22:55 | 39.05006 | -77.91260 | 12247 ft | 367 kts | 112° |
| 2026-05-06 22:55 | 39.04247 | -77.88278 | 12248 ft | 339 kts | 113° |
| 2026-05-06 22:55 | 39.03503 | -77.85403 | 12350 ft | 347 kts | 112° |
| 2026-05-06 22:55 | 39.02737 | -77.82446 | 11848 ft | 354 kts | 111° |
| 2026-05-06 22:56 | 39.01976 | -77.79475 | 11298 ft | 339 kts | 112° |
| 2026-05-06 22:56 | 39.01249 | -77.76653 | 10843 ft | 332 kts | 112° |
| 2026-05-06 22:56 | 39.00527 | -77.73864 | 10559 ft | 332 kts | 112° |
| 2026-05-06 22:56 | 38.99785 | -77.71004 | 10248 ft | 337 kts | 112° |
| 2026-05-06 22:57 | 38.99061 | -77.68203 | 9776 ft | 326 kts | 112° |
| 2026-05-06 22:57 | 38.98361 | -77.65505 | 9662 ft | 306 kts | 114° |
| 2026-05-06 22:57 | 38.97615 | -77.62948 | 9442 ft | 317 kts | 115° |
| 2026-05-06 22:57 | 38.96806 | -77.60232 | 9124 ft | 328 kts | 115° |
| 2026-05-06 22:58 | 38.96016 | -77.57547 | 8608 ft | 314 kts | 114° |
| 2026-05-06 22:58 | 38.95271 | -77.55014 | 8396 ft | 300 kts | 115° |
| 2026-05-06 22:58 | 38.94750 | -77.52408 | 8145 ft | 311 kts | 92° |
| 2026-05-06 22:58 | 38.95090 | -77.49647 | 8054 ft | 312 kts | 67° |
| 2026-05-06 22:59 | 38.95916 | -77.47070 | 8009 ft | 312 kts | 66° |
| 2026-05-06 22:59 | 38.96751 | -77.44484 | 7563 ft | 317 kts | 66° |
| 2026-05-06 22:59 | 38.97595 | -77.41909 | 7077 ft | 308 kts | 65° |
| 2026-05-06 22:59 | 38.98426 | -77.39392 | 6587 ft | 300 kts | 66° |
| 2026-05-06 23:00 | 38.99227 | -77.36977 | 6116 ft | 295 kts | 65° |
| 2026-05-06 23:00 | 39.00019 | -77.34590 | 5994 ft | 277 kts | 66° |
| 2026-05-06 23:00 | 39.00744 | -77.32417 | 5999 ft | 261 kts | 65° |
| 2026-05-06 23:00 | 39.01472 | -77.30252 | 6025 ft | 267 kts | 65° |
| 2026-05-06 23:01 | 39.02210 | -77.28056 | 6033 ft | 262 kts | 65° |
| 2026-05-06 23:01 | 39.02787 | -77.25839 | 5745 ft | 269 kts | 84° |
| 2026-05-06 23:01 | 39.02564 | -77.23546 | 5477 ft | 249 kts | 118° |
| 2026-05-06 23:01 | 39.01602 | -77.21810 | 5130 ft | 233 kts | 141° |
| 2026-05-06 23:02 | 39.00447 | -77.20375 | 4639 ft | 232 kts | 140° |
| 2026-05-06 23:02 | 38.99323 | -77.18930 | 4296 ft | 224 kts | 140° |
| 2026-05-06 23:02 | 38.98208 | -77.17506 | 3653 ft | 229 kts | 140° |
| 2026-05-06 23:02 | 38.97090 | -77.16080 | 3187 ft | 223 kts | 138° |
| 2026-05-06 23:03 | 38.96053 | -77.14786 | 2713 ft | 221 kts | 141° |
| 2026-05-06 23:03 | 38.94917 | -77.13543 | 2533 ft | 212 kts | 142° |
| 2026-05-06 23:03 | 38.93755 | -77.12267 | 2419 ft | 224 kts | 142° |
| 2026-05-06 23:03 | 38.92467 | -77.11214 | 2343 ft | 218 kts | 158° |
| 2026-05-06 23:04 | 38.91109 | -77.10378 | 2126 ft | 214 kts | 152° |
| 2026-05-06 23:04 | 38.90163 | -77.09059 | 1898 ft | 195 kts | 114° |
| 2026-05-06 23:04 | 38.89843 | -77.07453 | 1651 ft | 176 kts | 104° |
| 2026-05-06 23:04 | 38.89265 | -77.06173 | 1411 ft | 157 kts | 135° |
| 2026-05-06 23:05 | 38.88546 | -77.05185 | 1101 ft | 151 kts | 135° |
| 2026-05-06 23:05 | 38.87768 | -77.04308 | 659 ft | 149 kts | 156° |
| 2026-05-06 23:05 | 38.86797 | -77.03982 | 270 ft | 141 kts | 173° |
| 2026-05-06 23:05 | 38.85873 | -77.03852 | 45 ft | 126 kts | 172° |
| 2026-05-06 23:06 | 38.85110 | -77.03776 | 26 ft | 88 kts | 175° |
| 2026-05-06 23:06 | 38.84638 | -77.03722 | 24 ft | 57 kts | 175° |
| 2026-05-06 23:06 | 38.84419 | -77.03735 | 22 ft | 22 kts | 213° |
| 2026-05-06 23:06 | 38.84390 | -77.03820 | 22 ft | 3 kts | 264° |
| 2026-05-06 23:07 | 38.84389 | -77.03827 | 22 ft | 0 kts | 266° |
| 2026-05-06 23:07 | 38.84414 | -77.03848 | 23 ft | 9 kts | 354° |
| 2026-05-06 23:07 | 38.84513 | -77.03854 | 23 ft | 18 kts | 355° |
| 2026-05-06 23:07 | 38.84662 | -77.03868 | 24 ft | 17 kts | 356° |
| 2026-05-06 23:08 | 38.84743 | -77.03881 | 25 ft | 0 kts | 346° |
| 2026-05-06 23:08 | 38.84760 | -77.03886 | 25 ft | 4 kts | 349° |
| 2026-05-06 23:08 | 38.84800 | -77.03886 | 25 ft | 6 kts | 2° |
| 2026-05-06 23:08 | 38.84848 | -77.03889 | 26 ft | 7 kts | 358° |
| 2026-05-06 23:09 | 38.84874 | -77.03906 | 26 ft | 7 kts | 298° |
| 2026-05-06 23:09 | 38.84951 | -77.03960 | 26 ft | 16 kts | 356° |
| 2026-05-06 23:09 | 38.85066 | -77.03970 | 27 ft | 11 kts | 353° |
| 2026-05-06 23:09 | 38.85107 | -77.04005 | 28 ft | 1 kts | 291° |
| 2026-05-06 23:10 | 38.85109 | -77.04026 | 28 ft | 3 kts | 267° |
| 2026-05-06 23:10 | 38.85113 | -77.04060 | 29 ft | 4 kts | 298° |
| 2026-05-06 23:10 | 38.85138 | -77.04092 | 29 ft | 5 kts | 320° |
| 2026-05-06 23:10 | 38.85147 | -77.04101 | 29 ft | 0 kts | 320° |